.
WxDataArchive / Data Records for 2016-04-25
2016-04-24 April 2016 2016-04-26

Data Records for Monday, 25 April 2016

Time	Temp	Chill	HIndex	Humid	Dewpt	 Wind 	HiWind	WindDir	Rain 	Barom
-----	----	-----	------	-----	-----	------	------	-------	-----	-----
00:00	58.4	58.4	58.4	65	46.7	1	2	112	0.00	29.886 
00:05	57.8	57.8	57.8	66	46.5	1	3	112	0.00	29.886 
00:10	57.5	57.5	57.5	66	46.2	0	1	112	0.00	29.886 
00:15	57.0	57.0	57.0	66	45.8	0	4	112	0.00	29.883 
00:20	56.7	56.7	56.7	67	45.9	0	2	112	0.00	29.883 
00:25	56.5	56.5	56.5	67	45.7	0	2	112	0.00	29.883 
00:30	56.3	56.3	56.3	68	45.9	0	3	112	0.00	29.887 
00:35	56.0	56.0	56.0	68	45.6	0	1	112	0.00	29.887 
00:40	55.9	55.9	55.9	69	45.9	0	2	112	0.00	29.887 
00:45	55.6	55.6	55.6	69	45.6	0	1	112	0.00	29.890 
00:50	55.4	55.4	55.4	69	45.4	0	2	112	0.00	29.890 
00:55	55.1	55.1	55.1	70	45.5	0	2	112	0.00	29.890 
01:00	55.0	55.0	55.0	71	45.8	0	2	112	0.00	29.891 
01:05	54.7	54.7	54.7	71	45.5	0	2	112	0.00	29.891 
01:10	54.4	54.4	54.4	71	45.2	0	1	112	0.00	29.891 
01:15	54.2	54.2	54.2	71	45.0	0	1	112	0.00	29.892 
01:20	54.1	54.1	54.1	71	44.9	0	1	112	0.00	29.892 
01:25	53.9	53.9	53.9	71	44.7	0	1	112	0.00	29.892 
01:30	53.6	53.6	53.6	72	44.8	0	2	112	0.00	29.888 
01:35	53.5	53.5	53.5	72	44.7	0	1	112	0.00	29.888 
01:40	53.5	53.5	53.5	72	44.7	0	1	112	0.00	29.888 
01:45	53.3	53.3	53.3	72	44.5	0	1	112	0.00	29.883 
01:50	53.3	53.3	53.3	72	44.5	0	1	112	0.00	29.883 
01:55	53.2	53.2	53.2	73	44.8	0	1	112	0.00	29.883 
02:00	53.1	53.1	53.1	73	44.7	0	1	112	0.00	29.878 
02:05	53.1	53.1	53.1	73	44.7	0	0	---	0.00	29.878 
02:10	52.8	52.8	52.8	73	44.4	0	0	---	0.00	29.878 
02:15	52.6	52.6	52.6	74	44.6	0	1	112	0.00	29.876 
02:20	52.3	52.3	52.3	74	44.3	0	1	112	0.00	29.876 
02:25	52.2	52.2	52.2	74	44.2	0	0	---	0.00	29.876 
02:30	52.0	52.0	52.0	75	44.3	0	0	---	0.00	29.875 
02:35	51.9	51.9	51.9	75	44.2	0	0	---	0.00	29.875 
02:40	51.7	51.7	51.7	75	44.0	0	0	---	0.00	29.875 
02:45	51.6	51.6	51.6	76	44.3	0	0	---	0.00	29.872 
02:50	51.4	51.4	51.4	76	44.1	0	0	---	0.00	29.872 
02:55	51.3	51.3	51.3	77	44.3	0	0	---	0.00	29.872 
03:00	51.1	51.1	51.1	77	44.1	0	0	---	0.00	29.868 
03:05	51.0	51.0	51.0	77	44.0	0	0	---	0.00	29.868 
03:10	50.8	50.8	50.8	77	43.9	0	0	---	0.00	29.868 
03:15	50.7	50.7	50.7	78	44.1	0	0	---	0.00	29.869 
03:20	50.5	50.5	50.5	78	43.9	0	0	---	0.00	29.869 
03:25	50.4	50.4	50.4	79	44.1	0	0	---	0.00	29.869 
03:30	50.2	50.2	50.2	79	43.9	0	0	---	0.00	29.867 
03:35	50.1	50.1	50.1	79	43.8	0	0	---	0.00	29.867 
03:40	49.9	49.9	49.9	80	44.0	0	0	---	0.00	29.867 
03:45	49.8	49.8	49.8	80	43.9	0	0	---	0.00	29.866 
03:50	49.6	49.6	49.6	81	44.0	0	0	---	0.00	29.866 
03:55	49.6	49.6	49.6	81	44.0	0	0	---	0.00	29.866 
04:00	49.6	49.6	49.6	81	44.0	0	0	---	0.00	29.862 
04:05	49.5	49.5	49.5	81	43.9	0	0	---	0.00	29.862 
04:10	49.5	49.5	49.5	81	43.9	0	0	---	0.00	29.862 
04:15	49.6	49.6	49.6	81	44.0	0	0	---	0.00	29.861 
04:20	49.6	49.6	49.6	80	43.7	0	1	112	0.00	29.861 
04:25	49.8	49.8	49.8	79	43.6	0	1	112	0.00	29.861 
04:30	49.8	49.8	49.8	78	43.2	0	1	112	0.00	29.850 
04:35	49.8	49.8	49.8	78	43.2	0	1	112	0.00	29.850 
04:40	49.8	49.8	49.8	77	42.9	0	1	112	0.00	29.850 
04:45	49.8	49.8	49.8	77	42.9	0	1	112	0.00	29.849 
04:50	49.8	49.8	49.8	77	42.9	0	1	112	0.00	29.849 
04:55	49.6	49.6	49.6	77	42.7	0	1	112	0.00	29.849 
05:00	49.5	49.5	49.5	77	42.6	0	1	112	0.00	29.853 
05:05	49.5	49.5	49.5	77	42.6	0	1	112	0.00	29.853 
05:10	49.4	49.4	49.4	77	42.5	0	0	---	0.00	29.853 
05:15	49.4	49.4	49.4	77	42.5	0	1	112	0.00	29.848 
05:20	49.2	49.2	49.2	77	42.3	0	1	112	0.00	29.848 
05:25	49.1	49.1	49.1	77	42.2	0	2	112	0.00	29.848 
05:30	49.1	49.1	49.1	77	42.2	0	1	112	0.00	29.846 
05:35	49.1	49.1	49.1	77	42.2	0	1	112	0.00	29.846 
05:40	48.9	48.9	48.9	77	42.0	0	1	112	0.00	29.846 
05:45	48.9	48.9	48.9	77	42.0	0	1	112	0.00	29.845 
05:50	48.9	48.9	48.9	77	42.0	0	0	---	0.00	29.845 
05:55	48.8	48.8	48.8	78	42.2	0	0	---	0.00	29.845 
06:00	48.8	48.8	48.8	78	42.2	0	1	112	0.00	29.839 
06:05	48.6	48.6	48.6	78	42.1	0	1	112	0.00	29.839 
06:10	48.6	48.6	48.6	78	42.1	0	1	112	0.00	29.839 
06:15	48.6	48.6	48.6	78	42.1	0	0	---	0.00	29.843 
06:20	48.6	48.6	48.6	78	42.1	0	0	---	0.00	29.843 
06:25	48.5	48.5	48.5	79	42.3	0	0	---	0.00	29.843 
06:30	48.5	48.5	48.5	79	42.3	0	0	---	0.00	29.844 
06:35	48.5	48.5	48.5	79	42.3	0	0	---	0.00	29.844 
06:40	48.5	48.5	48.5	79	42.3	0	0	---	0.00	29.844 
06:45	48.5	48.5	48.5	79	42.3	0	0	---	0.00	29.841 
06:50	48.5	48.5	48.5	79	42.3	0	0	---	0.00	29.841 
06:55	48.5	48.5	48.5	79	42.3	0	0	---	0.00	29.841 
07:00	48.3	48.3	48.3	79	42.1	0	0	---	0.00	29.840 
07:05	48.3	48.3	48.3	79	42.1	0	0	---	0.00	29.840 
07:10	48.3	48.3	48.3	80	42.4	0	0	---	0.00	29.840 
07:15	48.5	48.5	48.5	80	42.6	0	0	---	0.00	29.842 
07:20	48.6	48.6	48.6	80	42.7	0	0	---	0.00	29.842 
07:25	48.8	48.8	48.8	80	42.9	0	0	---	0.00	29.842 
07:30	49.1	49.1	49.1	79	42.9	0	1	112	0.00	29.838 
07:35	49.2	49.2	49.2	79	43.0	0	0	---	0.00	29.838 
07:40	49.4	49.4	49.4	79	43.2	0	0	---	0.00	29.838 
07:45	49.6	49.6	49.6	79	43.4	0	0	---	0.00	29.837 
07:50	49.9	49.9	49.9	80	44.0	0	0	---	0.00	29.837 
07:55	50.4	50.4	50.4	80	44.5	0	0	---	0.00	29.837 
08:00	50.8	50.8	50.8	80	44.9	0	0	---	0.00	29.836 
08:05	51.3	51.3	51.3	79	45.0	0	0	---	0.00	29.836 
08:10	51.7	51.7	51.7	78	45.1	0	0	---	0.00	29.836 
08:15	52.2	52.2	52.2	78	45.5	0	1	112	0.00	29.836 
08:20	52.5	52.5	52.5	77	45.5	0	1	112	0.00	29.836 
08:25	52.9	52.9	52.9	76	45.5	0	1	112	0.00	29.836 
08:30	53.9	53.9	53.9	75	46.2	0	2	112	0.00	29.833 
08:35	54.8	54.8	54.8	73	46.3	0	1	112	0.00	29.833 
08:40	55.6	55.6	55.6	73	47.1	0	3	112	0.00	29.833 
08:45	56.2	56.2	56.2	72	47.3	0	1	112	0.00	29.822 
08:50	56.6	56.6	56.6	72	47.7	0	0	---	0.00	29.822 
08:55	56.9	56.9	56.9	71	47.6	0	1	112	0.00	29.822 
09:00	57.0	57.0	57.0	71	47.7	0	1	112	0.00	29.816 
09:05	57.8	57.8	57.8	71	48.5	0	1	112	0.00	29.816 
09:10	58.9	58.9	58.9	70	49.1	0	0	---	0.00	29.816 
09:15	60.2	60.2	60.2	69	50.0	0	0	---	0.00	29.814 
09:20	61.6	61.6	61.6	65	49.7	0	2	112	0.00	29.814 
09:25	62.9	62.9	62.9	64	50.5	0	4	112	0.00	29.814 
09:30	64.0	64.0	64.0	59	49.4	1	3	112	0.00	29.806 
09:35	64.8	64.8	64.8	58	49.7	1	4	112	0.00	29.806 
09:40	65.6	65.6	65.6	59	50.9	0	1	112	0.00	29.806 
09:45	66.3	66.3	66.3	57	50.6	0	3	112	0.00	29.802 
09:50	66.9	66.9	66.9	56	50.7	0	3	338	0.00	29.802 
09:55	67.4	67.4	67.4	56	51.1	0	3	270	0.00	29.802 
10:00	67.9	67.9	67.9	55	51.1	0	2	270	0.00	29.795 
10:05	68.6	68.6	68.6	55	51.8	0	1	270	0.00	29.795 
10:10	69.4	69.4	69.4	54	52.0	0	2	270	0.00	29.795 
10:15	69.9	69.9	69.9	52	51.5	0	1	270	0.00	29.798 
10:20	70.4	70.4	70.4	53	52.4	0	2	270	0.00	29.798 
10:25	70.9	70.9	70.9	53	52.9	0	2	248	0.00	29.798 
10:30	71.1	71.1	71.1	53	53.1	0	3	248	0.00	29.789 
10:35	71.5	71.5	71.5	50	51.9	1	4	248	0.00	29.789 
10:40	71.6	71.6	71.6	50	52.0	0	5	248	0.00	29.789 
10:45	72.3	72.3	72.3	53	54.2	0	2	90	0.00	29.789 
10:50	72.8	72.8	72.8	48	52.0	0	1	90	0.00	29.789 
10:55	73.3	73.3	73.3	51	54.1	0	1	90	0.00	29.789 
11:00	74.0	74.0	74.0	50	54.2	1	3	90	0.00	29.786 
11:05	74.4	74.4	74.4	49	54.0	0	3	90	0.00	29.786 
11:10	74.7	74.7	74.7	48	53.7	0	3	90	0.00	29.786 
11:15	75.1	75.1	77.7	47	53.5	1	3	90	0.00	29.783 
11:20	75.3	75.3	77.7	47	53.7	1	4	90	0.00	29.783 
11:25	75.6	75.6	77.8	46	53.3	0	2	90	0.00	29.783 
11:30	75.8	75.8	77.9	47	54.1	0	2	90	0.00	29.777 
11:35	75.8	75.8	77.9	44	52.3	1	2	248	0.00	29.777 
11:40	75.8	75.8	78.0	48	54.7	0	3	90	0.00	29.777 
11:45	76.0	76.0	78.0	44	52.5	1	3	45	0.00	29.773 
11:50	76.1	76.1	78.0	44	52.6	1	4	248	0.00	29.773 
11:55	76.3	76.3	78.1	46	54.0	1	4	248	0.00	29.773 
12:00	76.5	76.5	78.1	43	52.3	1	3	248	0.00	29.769 
12:05	77.0	77.0	78.3	41	51.5	2	6	248	0.00	29.769 
12:10	76.8	76.8	78.1	40	50.6	3	9	248	0.00	29.769 
12:15	76.7	76.7	78.2	42	51.9	1	6	248	0.00	29.769 
12:20	76.8	76.8	78.2	41	51.3	1	6	248	0.00	29.769 
12:25	76.7	76.7	78.1	41	51.2	1	5	248	0.00	29.769 
12:30	77.2	77.2	78.5	44	53.6	0	5	45	0.00	29.763 
12:35	77.2	77.2	78.4	42	52.3	1	5	292	0.00	29.763 
12:40	76.5	76.5	78.1	41	51.0	2	6	270	0.00	29.763 
12:45	76.1	76.1	77.9	42	51.3	2	5	248	0.00	29.761 
12:50	76.1	76.1	77.9	42	51.3	1	3	248	0.00	29.761 
12:55	76.0	76.0	77.9	42	51.2	1	6	248	0.00	29.761 
13:00	75.6	75.6	77.7	40	49.6	2	6	248	0.00	29.760 
13:05	75.6	75.6	77.8	43	51.5	1	4	248	0.00	29.760 
13:10	75.6	75.6	77.8	43	51.5	1	4	248	0.00	29.760 
13:15	76.5	76.5	78.1	41	51.0	3	13	248	0.00	29.759 
13:20	77.4	77.4	78.5	41	51.8	2	6	248	0.00	29.759 
13:25	77.4	77.4	78.4	39	50.5	2	10	248	0.00	29.759 
13:30	77.6	77.6	78.5	39	50.7	2	9	248	0.00	29.749 
13:35	78.1	78.1	78.7	38	50.4	2	11	248	0.00	29.749 
13:40	78.3	78.3	78.8	38	50.6	2	9	248	0.00	29.749 
13:45	78.1	78.1	78.7	38	50.4	2	6	248	0.00	29.746 
13:50	78.1	78.1	78.7	38	50.4	2	6	248	0.00	29.746 
13:55	77.7	77.7	78.6	40	51.4	1	4	248	0.00	29.746 
14:00	77.9	77.9	78.6	39	50.9	1	3	315	0.00	29.743 
14:05	77.9	77.9	78.7	40	51.6	1	4	225	0.00	29.743 
14:10	78.3	78.3	78.8	39	51.3	2	5	248	0.00	29.743 
14:15	78.6	78.6	79.0	39	51.5	1	3	248	0.00	29.740 
14:20	78.3	78.3	78.8	39	51.3	2	6	248	0.00	29.740 
14:25	78.3	78.3	78.9	40	52.0	2	5	270	0.00	29.740 
14:30	78.1	78.1	78.7	39	51.1	2	7	248	0.00	29.737 
14:35	77.4	77.4	78.4	40	51.2	2	5	225	0.00	29.737 
14:40	77.0	77.0	78.2	39	50.1	2	6	248	0.00	29.737 
14:45	77.2	77.2	78.3	40	51.0	2	5	248	0.00	29.740 
14:50	77.6	77.6	78.5	40	51.3	1	5	248	0.00	29.740 
14:55	77.6	77.6	78.5	40	51.3	1	5	225	0.00	29.740 
15:00	77.4	77.4	78.4	39	50.5	2	4	248	0.00	29.735 
15:05	77.6	77.6	78.6	41	52.0	2	9	248	0.00	29.735 
15:10	77.7	77.7	78.4	37	49.3	1	4	248	0.00	29.735 
15:15	77.9	77.9	78.6	38	50.2	1	3	270	0.00	29.728 
15:20	78.3	78.3	78.8	38	50.6	1	3	22	0.00	29.728 
15:25	78.5	78.5	78.7	36	49.3	2	6	248	0.00	29.728 
15:30	78.5	78.5	78.7	35	48.5	1	4	248	0.00	29.724 
15:35	78.3	78.3	78.7	37	49.9	2	5	248	0.00	29.724 
15:40	78.3	78.3	78.8	39	51.3	1	3	270	0.00	29.724 
15:45	78.3	78.3	78.8	38	50.6	2	6	248	0.00	29.720 
15:50	77.9	77.9	78.6	38	50.2	1	4	248	0.00	29.720 
15:55	77.9	77.9	78.7	40	51.6	1	4	225	0.00	29.720 
16:00	78.5	78.5	79.1	41	52.8	1	3	270	0.00	29.713 
16:05	78.6	78.6	79.0	39	51.5	2	5	248	0.00	29.713 
16:10	78.8	78.8	79.0	38	51.0	0	2	22	0.00	29.713 
16:15	78.6	78.6	78.8	36	49.4	2	5	248	0.00	29.712 
16:20	78.1	78.1	78.7	38	50.4	1	5	248	0.00	29.712 
16:25	77.9	77.9	78.7	40	51.6	1	4	248	0.00	29.712 
16:30	77.7	77.7	78.5	38	50.0	2	5	248	0.00	29.705 
16:35	78.1	78.1	78.7	38	50.4	2	4	248	0.00	29.705 
16:40	78.5	78.5	78.9	38	50.8	2	6	248	0.00	29.705 
16:45	78.5	78.5	78.9	39	51.5	2	5	248	0.00	29.708 
16:50	78.6	78.6	78.9	38	50.8	2	5	248	0.00	29.708 
16:55	78.5	78.5	78.9	39	51.5	1	4	270	0.00	29.708 
17:00	78.3	78.3	78.9	40	52.0	1	3	270	0.00	29.705 
17:05	78.8	78.8	79.3	42	53.7	1	4	270	0.00	29.705 
17:10	79.0	79.0	79.2	38	51.2	1	6	248	0.00	29.705 
17:15	79.0	79.0	79.2	39	51.9	1	3	248	0.00	29.703 
17:20	78.6	78.6	79.0	39	51.5	1	3	315	0.00	29.703 
17:25	78.3	78.3	78.8	39	51.3	1	5	270	0.00	29.703 
17:30	78.1	78.1	78.8	40	51.8	1	2	248	0.00	29.702 
17:35	77.9	77.9	78.7	40	51.6	1	3	248	0.00	29.702 
17:40	77.7	77.7	78.6	40	51.4	1	3	248	0.00	29.702 
17:45	77.6	77.6	78.5	40	51.3	2	6	248	0.00	29.701 
17:50	77.4	77.4	78.4	40	51.2	1	2	248	0.00	29.701 
17:55	77.2	77.2	78.4	41	51.7	1	4	248	0.00	29.701 
18:00	77.0	77.0	78.3	42	52.1	1	6	68	0.00	29.700 
18:05	77.0	77.0	78.3	41	51.5	1	4	248	0.00	29.700 
18:10	77.0	77.0	78.3	41	51.5	2	6	248	0.00	29.700 
18:15	77.2	77.2	78.4	42	52.3	1	3	225	0.00	29.701 
18:20	77.0	77.0	78.3	42	52.1	1	3	225	0.00	29.701 
18:25	77.0	77.0	78.3	42	52.1	1	4	248	0.00	29.701 
18:30	77.0	77.0	78.3	41	51.5	1	4	248	0.00	29.701 
18:35	77.0	77.0	78.4	43	52.8	0	3	248	0.00	29.701 
18:40	76.8	76.8	78.3	43	52.6	0	2	248	0.00	29.701 
18:45	77.0	77.0	78.3	42	52.1	1	3	248	0.00	29.699 
18:50	77.2	77.2	78.4	42	52.3	1	4	248	0.00	29.699 
18:55	77.4	77.4	78.5	41	51.8	1	4	248	0.00	29.699 
19:00	77.4	77.4	78.5	41	51.8	1	3	248	0.00	29.694 
19:05	77.4	77.4	78.5	41	51.8	0	3	248	0.00	29.694 
19:10	77.2	77.2	78.4	42	52.3	0	1	248	0.00	29.694 
19:15	76.8	76.8	78.3	43	52.6	0	2	248	0.00	29.687 
19:20	76.5	76.5	78.1	43	52.3	0	2	248	0.00	29.687 
19:25	76.5	76.5	78.1	42	51.7	1	6	248	0.00	29.687 
19:30	76.3	76.3	78.0	43	52.1	0	3	248	0.00	29.684 
19:35	76.1	76.1	78.0	43	52.0	0	2	248	0.00	29.684 
19:40	76.0	76.0	77.9	43	51.9	0	2	248	0.00	29.684 
19:45	75.8	75.8	77.9	44	52.3	0	3	248	0.00	29.683 
19:50	75.6	75.6	77.8	44	52.1	0	2	248	0.00	29.683 
19:55	75.4	75.4	77.7	44	52.0	0	1	248	0.00	29.683 
20:00	75.1	75.1	77.6	45	52.3	0	1	248	0.00	29.681 
20:05	74.9	74.9	74.9	45	52.1	0	2	292	0.00	29.681 
20:10	74.7	74.7	74.7	45	51.9	0	2	292	0.00	29.681 
20:15	74.6	74.6	74.6	46	52.4	0	2	292	0.00	29.673 
20:20	74.4	74.4	74.4	46	52.3	0	2	292	0.00	29.673 
20:25	74.2	74.2	74.2	46	52.1	0	3	292	0.00	29.673 
20:30	74.0	74.0	74.0	46	51.9	0	2	292	0.00	29.668 
20:35	74.0	74.0	74.0	46	51.9	0	2	338	0.00	29.668 
20:40	73.9	73.9	73.9	46	51.8	0	1	338	0.00	29.668 
20:45	73.5	73.5	73.5	47	52.0	0	1	338	0.00	29.673 
20:50	73.3	73.3	73.3	47	51.8	0	2	292	0.00	29.673 
20:55	73.3	73.3	73.3	48	52.4	0	1	292	0.00	29.673 
21:00	73.0	73.0	73.0	48	52.1	0	2	270	0.00	29.670 
21:05	72.8	72.8	72.8	49	52.5	0	1	270	0.00	29.670 
21:10	72.5	72.5	72.5	49	52.2	0	2	270	0.00	29.670 
21:15	72.3	72.3	72.3	50	52.6	0	1	270	0.00	29.664 
21:20	72.0	72.0	72.0	50	52.3	0	1	270	0.00	29.664 
21:25	71.8	71.8	71.8	50	52.1	0	1	270	0.00	29.664 
21:30	71.6	71.6	71.6	50	52.0	0	1	270	0.00	29.664 
21:35	71.6	71.6	71.6	50	52.0	0	2	270	0.00	29.664 
21:40	71.5	71.5	71.5	50	51.9	0	2	270	0.00	29.664 
21:45	71.5	71.5	71.5	51	52.4	0	1	270	0.00	29.666 
21:50	71.5	71.5	71.5	51	52.4	0	1	270	0.00	29.666 
21:55	71.3	71.3	71.3	51	52.2	0	1	270	0.00	29.666 
22:00	71.3	71.3	71.3	51	52.2	0	2	270	0.00	29.663 
22:05	71.1	71.1	71.1	51	52.0	0	2	270	0.00	29.663 
22:10	70.9	70.9	70.9	52	52.4	0	2	270	0.00	29.663 
22:15	70.9	70.9	70.9	52	52.4	0	1	270	0.00	29.653 
22:20	70.8	70.8	70.8	52	52.3	0	2	270	0.00	29.653 
22:25	70.6	70.6	70.6	53	52.6	0	3	270	0.00	29.653 
22:30	70.4	70.4	70.4	53	52.4	0	1	270	0.00	29.647 
22:35	70.4	70.4	70.4	53	52.4	0	3	270	0.00	29.647 
22:40	70.4	70.4	70.4	53	52.4	0	2	270	0.00	29.647 
22:45	70.4	70.4	70.4	53	52.4	0	3	270	0.00	29.638 
22:50	70.4	70.4	70.4	54	52.9	0	2	270	0.00	29.638 
22:55	70.3	70.3	70.3	54	52.9	0	2	270	0.00	29.638 
23:00	70.3	70.3	70.3	54	52.9	1	3	270	0.00	29.635 
23:05	70.3	70.3	70.3	54	52.9	0	3	270	0.00	29.635 
23:10	70.3	70.3	70.3	54	52.9	0	2	0	0.00	29.635 
23:15	70.1	70.1	70.1	54	52.7	0	1	338	0.00	29.626 
23:20	69.9	69.9	69.9	54	52.5	0	4	338	0.00	29.626 
23:25	69.8	69.8	69.8	55	52.9	0	2	202	0.00	29.626 
23:30	69.6	69.6	69.6	55	52.7	0	2	202	0.00	29.622 
23:35	69.6	69.6	69.6	55	52.7	0	2	202	0.00	29.622 
23:40	69.4	69.4	69.4	55	52.5	0	2	202	0.00	29.622 
23:45	69.4	69.4	69.4	55	52.5	0	2	202	0.00	29.621 
23:50	69.4	69.4	69.4	55	52.5	0	3	202	0.00	29.621 
23:55	69.4	69.4	69.4	55	52.5	0	2	22	0.00	29.621 

CoCoRaHS
IN-AL-39
A2 Web Hosting
Creative Commons License
GoDaddy
search engine by freefind advanced

loaded 2018-11-15 15:38:55 • last modified 2010-11-18 10:43:29
Privacy PolicyDisclaimer
• wx.awcolley.com is powered by PmWiki v.2002016 •
• all content (unless otherwise noted) © 2018 A W Colley